sensor_id;sensor_type;location;lat;lon;timestamp;pressure;altitude;pressure_sealevel;temperature;humidity
59789;BME280;47353;51.614;5.530;2023-05-08T00:00:22;101932.44;;;14.40;100.00
59789;BME280;47353;51.614;5.530;2023-05-08T00:02:47;101928.81;;;14.39;100.00
59789;BME280;47353;51.614;5.530;2023-05-08T00:05:13;101923.22;;;14.34;100.00
59789;BME280;47353;51.614;5.530;2023-05-08T00:07:39;101936.31;;;14.34;100.00
59789;BME280;47353;51.614;5.530;2023-05-08T00:10:05;101936.31;;;14.34;100.00
59789;BME280;47353;51.614;5.530;2023-05-08T00:12:31;101944.41;;;14.35;100.00
59789;BME280;47353;51.614;5.530;2023-05-08T00:14:56;101935.19;;;14.35;100.00
59789;BME280;47353;51.614;5.530;2023-05-08T00:17:22;101942.97;;;14.33;100.00
59789;BME280;47353;51.614;5.530;2023-05-08T00:19:47;101937.97;;;14.30;100.00
59789;BME280;47353;51.614;5.530;2023-05-08T00:22:13;101933.78;;;14.27;100.00
59789;BME280;47353;51.614;5.530;2023-05-08T00:24:38;101936.31;;;14.29;100.00
59789;BME280;47353;51.614;5.530;2023-05-08T00:27:03;101927.09;;;14.28;100.00
59789;BME280;47353;51.614;5.530;2023-05-08T00:29:29;101930.44;;;14.25;100.00
59789;BME280;47353;51.614;5.530;2023-05-08T00:31:54;101930.16;;;14.27;100.00
59789;BME280;47353;51.614;5.530;2023-05-08T00:34:20;101926.84;;;14.25;100.00
59789;BME280;47353;51.614;5.530;2023-05-08T00:36:46;101929.28;;;14.21;100.00
59789;BME280;47353;51.614;5.530;2023-05-08T00:39:11;101936.81;;;14.21;100.00
59789;BME280;47353;51.614;5.530;2023-05-08T00:41:37;101932.06;;;14.16;100.00
59789;BME280;47353;51.614;5.530;2023-05-08T00:44:02;101927.63;;;14.15;100.00
59789;BME280;47353;51.614;5.530;2023-05-08T00:46:27;101922.59;;;14.17;100.00
59789;BME280;47353;51.614;5.530;2023-05-08T00:48:53;101927.06;;;14.18;100.00
59789;BME280;47353;51.614;5.530;2023-05-08T00:51:19;101922.84;;;14.16;100.00
59789;BME280;47353;51.614;5.530;2023-05-08T00:53:45;101926.50;;;14.16;100.00
59789;BME280;47353;51.614;5.530;2023-05-08T00:56:12;101927.31;;;14.12;100.00
59789;BME280;47353;51.614;5.530;2023-05-08T00:58:39;101931.75;;;14.13;100.00
59789;BME280;47353;51.614;5.530;2023-05-08T01:01:05;101933.72;;;14.12;100.00
59789;BME280;47353;51.614;5.530;2023-05-08T01:03:32;101922.84;;;14.06;100.00
59789;BME280;47353;51.614;5.530;2023-05-08T01:05:59;101923.13;;;14.09;100.00
59789;BME280;47353;51.614;5.530;2023-05-08T01:08:25;101926.75;;;14.05;100.00
59789;BME280;47353;51.614;5.530;2023-05-08T01:14:20;101926.47;;;14.06;100.00
59789;BME280;47353;51.614;5.530;2023-05-08T01:17:02;101923.13;;;14.04;100.00
59789;BME280;47353;51.614;5.530;2023-05-08T01:27:45;101917.53;;;13.99;100.00
59789;BME280;47353;51.614;5.530;2023-05-08T01:30:31;101924.22;;;13.98;100.00
59789;BME280;47353;51.614;5.530;2023-05-08T01:33:09;101914.44;;;13.96;100.00
59789;BME280;47353;51.614;5.530;2023-05-08T01:35:44;101930.63;;;13.99;100.00
59789;BME280;47353;51.614;5.530;2023-05-08T01:38:13;101935.66;;;14.02;100.00
59789;BME280;47353;51.614;5.530;2023-05-08T01:41:02;101929.50;;;14.00;100.00
59789;BME280;47353;51.614;5.530;2023-05-08T01:44:03;101919.78;;;13.97;100.00
59789;BME280;47353;51.614;5.530;2023-05-08T01:46:31;101927.84;;;13.99;100.00
59789;BME280;47353;51.614;5.530;2023-05-08T01:49:26;101925.34;;;13.97;100.00
59789;BME280;47353;51.614;5.530;2023-05-08T01:51:58;101926.44;;;13.96;100.00
59789;BME280;47353;51.614;5.530;2023-05-08T01:54:27;101918.03;;;13.91;100.00
59789;BME280;47353;51.614;5.530;2023-05-08T01:56:56;101927.53;;;13.95;100.00
59789;BME280;47353;51.614;5.530;2023-05-08T01:59:23;101926.69;;;13.95;100.00
59789;BME280;47353;51.614;5.530;2023-05-08T02:01:54;101925.56;;;13.96;100.00
59789;BME280;47353;51.614;5.530;2023-05-08T02:04:21;101930.59;;;13.94;100.00
59789;BME280;47353;51.614;5.530;2023-05-08T02:06:50;101939.78;;;13.94;100.00
59789;BME280;47353;51.614;5.530;2023-05-08T02:09:16;101937.53;;;13.91;100.00
59789;BME280;47353;51.614;5.530;2023-05-08T02:11:44;101937.53;;;13.91;100.00
59789;BME280;47353;51.614;5.530;2023-05-08T02:14:10;101937.25;;;13.93;100.00
59789;BME280;47353;51.614;5.530;2023-05-08T02:16:37;101935.31;;;13.93;100.00
59789;BME280;47353;51.614;5.530;2023-05-08T02:19:06;101937.53;;;13.91;100.00
59789;BME280;47353;51.614;5.530;2023-05-08T02:21:34;101938.34;;;13.87;100.00
59789;BME280;47353;51.614;5.530;2023-05-08T02:24:01;101944.22;;;13.90;100.00
59789;BME280;47353;51.614;5.530;2023-05-08T02:26:29;101937.81;;;13.90;100.00
59789;BME280;47353;51.614;5.530;2023-05-08T02:28:55;101941.72;;;13.89;100.00
59789;BME280;47353;51.614;5.530;2023-05-08T02:31:23;101937.25;;;13.88;100.00
59789;BME280;47353;51.614;5.530;2023-05-08T02:33:49;101935.56;;;13.87;100.00
59789;BME280;47353;51.614;5.530;2023-05-08T02:36:16;101930.53;;;13.84;100.00
59789;BME280;47353;51.614;5.530;2023-05-08T02:38:53;101941.97;;;13.87;100.00
59789;BME280;47353;51.614;5.530;2023-05-08T02:41:22;101938.94;;;13.89;100.00
59789;BME280;47353;51.614;5.530;2023-05-08T02:43:49;101943.66;;;13.88;100.00
59789;BME280;47353;51.614;5.530;2023-05-08T02:46:36;101939.78;;;13.89;100.00
59789;BME280;47353;51.614;5.530;2023-05-08T02:49:04;101941.97;;;13.87;100.00
59789;BME280;47353;51.614;5.530;2023-05-08T02:51:49;101936.13;;;13.84;100.00
59789;BME280;47353;51.614;5.530;2023-05-08T02:57:17;101940.59;;;13.85;100.00
59789;BME280;47353;51.614;5.530;2023-05-08T02:59:51;101934.19;;;13.84;100.00
59789;BME280;47353;51.614;5.530;2023-05-08T03:02:27;101937.22;;;13.83;100.00
59789;BME280;47353;51.614;5.530;2023-05-08T03:05:00;101939.72;;;13.79;100.00
59789;BME280;47353;51.614;5.530;2023-05-08T03:07:27;101935.53;;;13.77;100.00
59789;BME280;47353;51.614;5.530;2023-05-08T03:09:59;101941.38;;;13.75;100.00
59789;BME280;47353;51.614;5.530;2023-05-08T03:12:27;101944.16;;;13.75;100.00
59789;BME280;47353;51.614;5.530;2023-05-08T03:15:02;101939.69;;;13.74;100.00
59789;BME280;47353;51.614;5.530;2023-05-08T03:17:31;101942.47;;;13.74;100.00
59789;BME280;47353;51.614;5.530;2023-05-08T03:20:01;101933.31;;;13.74;100.00
59789;BME280;47353;51.614;5.530;2023-05-08T03:22:29;101933.56;;;13.72;100.00
59789;BME280;47353;51.614;5.530;2023-05-08T03:24:59;101947.75;;;13.71;100.00
59789;BME280;47353;51.614;5.530;2023-05-08T03:27:27;101932.44;;;13.68;100.00
59789;BME280;47353;51.614;5.530;2023-05-08T03:29:54;101938.25;;;13.67;100.00
59789;BME280;47353;51.614;5.530;2023-05-08T03:32:20;101933.81;;;13.66;100.00
59789;BME280;47353;51.614;5.530;2023-05-08T03:34:47;101930.47;;;13.64;100.00
59789;BME280;47353;51.614;5.530;2023-05-08T03:37:13;101927.41;;;13.60;100.00
59789;BME280;47353;51.614;5.530;2023-05-08T03:39:38;101930.97;;;13.56;100.00
59789;BME280;47353;51.614;5.530;2023-05-08T03:42:04;101931.22;;;13.54;100.00
59789;BME280;47353;51.614;5.530;2023-05-08T03:44:31;101927.63;;;13.54;100.00
59789;BME280;47353;51.614;5.530;2023-05-08T03:46:57;101927.91;;;13.52;100.00
59789;BME280;47353;51.614;5.530;2023-05-08T03:49:24;101927.88;;;13.47;100.00
59789;BME280;47353;51.614;5.530;2023-05-08T03:51:50;101928.69;;;13.43;100.00
59789;BME280;47353;51.614;5.530;2023-05-08T03:54:16;101928.97;;;13.41;100.00
59789;BME280;47353;51.614;5.530;2023-05-08T03:56:41;101922.00;;;13.38;100.00
59789;BME280;47353;51.614;5.530;2023-05-08T03:59:23;101923.66;;;13.39;100.00
59789;BME280;47353;51.614;5.530;2023-05-08T04:02:14;101920.31;;;13.37;100.00
59789;BME280;47353;51.614;5.530;2023-05-08T04:04:44;101918.06;;;13.34;100.00
59789;BME280;47353;51.614;5.530;2023-05-08T04:07:15;101931.13;;;13.34;100.00
59789;BME280;47353;51.614;5.530;2023-05-08T04:10:07;101932.25;;;13.33;100.00
59789;BME280;47353;51.614;5.530;2023-05-08T04:12:43;101929.41;;;13.28;100.00
59789;BME280;47353;51.614;5.530;2023-05-08T04:15:20;101928.88;;;13.31;100.00
59789;BME280;47353;51.614;5.530;2023-05-08T04:17:53;101924.75;;;13.33;100.00
59789;BME280;47353;51.614;5.530;2023-05-08T04:20:21;101929.19;;;13.34;100.00
59789;BME280;47353;51.614;5.530;2023-05-08T04:22:49;101931.38;;;13.32;100.00
59789;BME280;47353;51.614;5.530;2023-05-08T04:25:17;101929.16;;;13.29;100.00
59789;BME280;47353;51.614;5.530;2023-05-08T04:27:44;101928.03;;;13.25;100.00
59789;BME280;47353;51.614;5.530;2023-05-08T04:30:10;101939.72;;;13.32;100.00
59789;BME280;47353;51.614;5.530;2023-05-08T04:32:37;101932.19;;;13.28;100.00
59789;BME280;47353;51.614;5.530;2023-05-08T04:35:03;101941.44;;;13.33;100.00
59789;BME280;47353;51.614;5.530;2023-05-08T04:37:29;101943.66;;;13.36;100.00
59789;BME280;47353;51.614;5.530;2023-05-08T04:39:59;101948.38;;;13.36;100.00
59789;BME280;47353;51.614;5.530;2023-05-08T04:42:25;101945.03;;;13.34;100.00
59789;BME280;47353;51.614;5.530;2023-05-08T04:44:51;101948.13;;;13.37;100.00
59789;BME280;47353;51.614;5.530;2023-05-08T04:47:17;101950.63;;;13.39;100.00
59789;BME280;47353;51.614;5.530;2023-05-08T04:49:43;101952.31;;;13.40;100.00
59789;BME280;47353;51.614;5.530;2023-05-08T04:52:08;101956.53;;;13.48;100.00
59789;BME280;47353;51.614;5.530;2023-05-08T04:54:34;101963.81;;;13.54;100.00
59789;BME280;47353;51.614;5.530;2023-05-08T04:56:59;101963.25;;;13.57;100.00
59789;BME280;47353;51.614;5.530;2023-05-08T04:59:25;101961.88;;;13.59;100.00
59789;BME280;47353;51.614;5.530;2023-05-08T05:01:50;101959.69;;;13.66;100.00
59789;BME280;47353;51.614;5.530;2023-05-08T05:04:16;101961.94;;;13.69;100.00
59789;BME280;47353;51.614;5.530;2023-05-08T05:06:41;101966.69;;;13.74;100.00
59789;BME280;47353;51.614;5.530;2023-05-08T05:09:07;101969.25;;;13.80;100.00
59789;BME280;47353;51.614;5.530;2023-05-08T05:11:33;101969.25;;;13.85;100.00
59789;BME280;47353;51.614;5.530;2023-05-08T05:13:58;101974.03;;;13.95;100.00
59789;BME280;47353;51.614;5.530;2023-05-08T05:16:23;101973.47;;;13.98;100.00
59789;BME280;47353;51.614;5.530;2023-05-08T05:18:49;101976.00;;;14.04;100.00
59789;BME280;47353;51.614;5.530;2023-05-08T05:21:14;101978.81;;;14.09;100.00
59789;BME280;47353;51.614;5.530;2023-05-08T05:23:40;101978.56;;;14.11;100.00
59789;BME280;47353;51.614;5.530;2023-05-08T05:26:05;101985.81;;;14.17;100.00
59789;BME280;47353;51.614;5.530;2023-05-08T05:28:31;101987.50;;;14.23;100.00
59789;BME280;47353;51.614;5.530;2023-05-08T05:30:56;101995.63;;;14.29;100.00
59789;BME280;47353;51.614;5.530;2023-05-08T05:33:22;101987.56;;;14.38;100.00
59789;BME280;47353;51.614;5.530;2023-05-08T05:35:47;101995.94;;;14.38;100.00
59789;BME280;47353;51.614;5.530;2023-05-08T05:38:13;102005.41;;;14.47;100.00
59789;BME280;47353;51.614;5.530;2023-05-08T05:40:38;101994.88;;;14.54;100.00
59789;BME280;47353;51.614;5.530;2023-05-08T05:43:03;102009.09;;;14.62;100.00
59789;BME280;47353;51.614;5.530;2023-05-08T05:45:29;102009.94;;;14.68;100.00
59789;BME280;47353;51.614;5.530;2023-05-08T05:47:54;102007.44;;;14.66;100.00
59789;BME280;47353;51.614;5.530;2023-05-08T05:50:20;102011.31;;;14.65;100.00
59789;BME280;47353;51.614;5.530;2023-05-08T05:52:46;101992.09;;;14.59;100.00
59789;BME280;47353;51.614;5.530;2023-05-08T05:55:12;102006.88;;;14.74;100.00
59789;BME280;47353;51.614;5.530;2023-05-08T05:57:37;102011.34;;;14.85;100.00
59789;BME280;47353;51.614;5.530;2023-05-08T06:00:04;102009.97;;;14.93;100.00
59789;BME280;47353;51.614;5.530;2023-05-08T06:02:30;102018.31;;;14.93;100.00
59789;BME280;47353;51.614;5.530;2023-05-08T06:04:58;102010.56;;;15.05;100.00
59789;BME280;47353;51.614;5.530;2023-05-08T06:07:23;102016.13;;;15.15;100.00
59789;BME280;47353;51.614;5.530;2023-05-08T06:09:49;102018.63;;;15.22;100.00
59789;BME280;47353;51.614;5.530;2023-05-08T06:12:15;102015.53;;;15.33;100.00
59789;BME280;47353;51.614;5.530;2023-05-08T06:14:42;102020.59;;;15.41;100.00
59789;BME280;47353;51.614;5.530;2023-05-08T06:17:08;102016.97;;;15.51;100.00
59789;BME280;47353;51.614;5.530;2023-05-08T06:19:33;102024.22;;;15.57;100.00
59789;BME280;47353;51.614;5.530;2023-05-08T06:21:58;102020.28;;;15.58;100.00
59789;BME280;47353;51.614;5.530;2023-05-08T06:24:24;102014.97;;;15.61;100.00
59789;BME280;47353;51.614;5.530;2023-05-08T06:26:49;102017.22;;;15.64;100.00
59789;BME280;47353;51.614;5.530;2023-05-08T06:29:15;102009.41;;;15.71;100.00
59789;BME280;47353;51.614;5.530;2023-05-08T06:31:40;102016.88;;;15.81;100.00
59789;BME280;47353;51.614;5.530;2023-05-08T06:34:05;102017.16;;;15.89;100.00
59789;BME280;47353;51.614;5.530;2023-05-08T06:36:31;102015.78;;;15.87;100.00
59789;BME280;47353;51.614;5.530;2023-05-08T06:38:56;102020.75;;;16.00;100.00
